SBTA

Details ICAO SBTA
Name BASE DE AVIACAO DE TAUBATE
Region Brazil
Timezone America/Sao_Paulo (UTC-2.0)
Plans Departing 7
Arriving 0
Stats Elevation 1,908 ft / 582 m (AMSL)
Location -23.040133° -45.516010°
Runways 1
Magnetic Variation 21.883° W
Sunrise 2017-12-11 08:11:11 UTC / 2017-12-11 06:11:11 Local
Sunset 2017-12-11 21:42:29 UTC / 2017-12-11 19:42:29 Local
Advertisement - Login to hide

Runways

ID Width Length Bearing (true) Bearing (mag) Surface Threshold Offset Overrun Length
08 98 ft / 30 m 4,900 ft / 1,494 m 56.28° 78.16° Asphalt 1,275 ft / 389 m 200 ft / 61 m
26 98 ft / 30 m 4,900 ft / 1,494 m 236.27° 258.15° Asphalt 0 ft / 0 m 200 ft / 61 m

Map

Weather


0- 5 10 15 20 25 30 35+ Temperature / ° C

Clouds and Precipitation
Forecast for 2017-12-12 00:00 UTC. Updated 11 minutes ago

Ground ~20,000 ft ~40,000 ft Winds

METAR

SBTA 112300Z 18005KT 9999 SCT030 BKN070 24/16 Q1012

TAF

Not found

Frequencies

Ground 121.70 MHz GND
Tower 119.90 MHz TWR
Warning: Do not use this data for real-world aviation or navigation. No guarantee of current accuracy is given.